Time;durP1;ratioP1;P1;durP2;ratioP2;P2;SDS_P1;SDS_P2;PMS_P1;PMS_P2;Temp;Humidity;BMP_temperature;BMP_pressure;BME280_temperature;BME280_humidity;BME280_pressure;Samples;Min_cycle;Max_cycle;Signal;HPM_P1;HPM_P2
2023/01/06 00:00:22;;;;;;;1.50;1.40;;;18.50;59.60;;;;;;5051995;28;20630;-61
2023/01/06 00:02:48;;;;;;;2.78;1.60;;;18.50;59.60;;;;;;5052502;28;20200;-61
2023/01/06 00:05:13;;;;;;;1.95;1.25;;;18.50;59.60;;;;;;5052604;28;20634;-61
2023/01/06 00:07:39;;;;;;;1.90;1.10;;;18.50;59.70;;;;;;5051672;28;20187;-61
2023/01/06 00:10:05;;;;;;;3.40;1.40;;;18.50;59.70;;;;;;5052868;28;20225;-61
2023/01/06 00:12:31;;;;;;;2.20;1.30;;;18.50;59.70;;;;;;5052202;28;20652;-61
2023/01/06 00:14:57;;;;;;;1.75;1.30;;;18.50;59.70;;;;;;5051796;28;20273;-61
2023/01/06 00:17:22;;;;;;;3.08;1.65;;;18.40;59.70;;;;;;5052741;28;20250;-61
2023/01/06 00:19:48;;;;;;;2.53;1.50;;;18.40;59.70;;;;;;5052031;28;20753;-61
2023/01/06 00:22:13;;;;;;;1.90;1.40;;;18.40;59.80;;;;;;5051900;28;20625;-61
2023/01/06 00:24:39;;;;;;;2.33;1.42;;;18.40;60.60;;;;;;5052183;28;20233;-61
2023/01/06 00:27:04;;;;;;;2.83;1.60;;;18.40;59.70;;;;;;5052166;28;20217;-61
2023/01/06 00:29:30;;;;;;;3.08;1.40;;;18.40;59.70;;;;;;5052383;28;20549;-61
2023/01/06 00:31:59;;;;;;;2.35;1.67;;;18.30;59.60;;;;;;5052525;28;20294;-61
2023/01/06 00:34:24;;;;;;;1.48;1.20;;;18.30;59.80;;;;;;5051826;28;20218;-62
2023/01/06 00:36:50;;;;;;;3.17;1.38;;;18.30;59.70;;;;;;5052103;28;20572;-61
2023/01/06 00:39:15;;;;;;;1.77;1.30;;;18.30;59.80;;;;;;5052608;28;20576;-61
2023/01/06 00:44:25;;;;;;;1.73;1.00;;;18.30;59.80;;;;;;5052417;28;20175;-61
2023/01/06 00:46:50;;;;;;;1.67;1.20;;;18.30;59.80;;;;;;5052059;28;20175;-62
2023/01/06 00:49:16;;;;;;;1.88;1.50;;;18.30;59.90;;;;;;5051737;28;20542;-61
2023/01/06 00:51:41;;;;;;;1.52;1.20;;;18.30;60.00;;;;;;5052066;28;20691;-61
2023/01/06 00:54:08;;;;;;;2.47;1.30;;;18.30;59.90;;;;;;5052370;28;20222;-61
2023/01/06 00:56:37;;;;;;;2.58;1.42;;;18.30;59.80;;;;;;5051430;28;20175;-61
2023/01/06 00:59:03;;;;;;;2.78;1.33;;;18.20;59.90;;;;;;5055925;28;20183;-61
2023/01/06 01:01:29;;;;;;;1.95;1.48;;;18.30;59.90;;;;;;5055910;28;20221;-61
2023/01/06 01:03:54;;;;;;;2.63;1.45;;;18.20;59.90;;;;;;5054734;28;20186;-62
2023/01/06 01:06:20;;;;;;;1.48;1.23;;;18.20;59.80;;;;;;5055764;28;20258;-61
2023/01/06 01:08:45;;;;;;;1.40;1.30;;;18.20;59.80;;;;;;5055348;28;20271;-61
2023/01/06 01:12:08;;;;;;;3.08;1.13;;;18.20;60.00;;;;;;5055141;28;20175;-61
2023/01/06 01:14:00;;;;;;;2.30;1.48;;;18.20;59.90;;;;;;5055390;28;20245;-61
2023/01/06 01:16:25;;;;;;;2.13;1.17;;;18.20;59.80;;;;;;5054745;28;20952;-62
2023/01/06 01:18:51;;;;;;;1.95;1.50;;;18.10;60.00;;;;;;5055051;28;20729;-62
2023/01/06 01:21:16;;;;;;;2.45;1.17;;;18.20;60.00;;;;;;5055478;28;20210;-61
2023/01/06 01:23:42;;;;;;;3.22;1.60;;;18.10;59.80;;;;;;5054366;28;20174;-61
2023/01/06 01:26:07;;;;;;;1.60;1.38;;;18.10;59.90;;;;;;5055568;28;20179;-61
2023/01/06 01:28:33;;;;;;;2.33;1.23;;;18.10;60.00;;;;;;5055215;28;20186;-61
2023/01/06 01:31:02;;;;;;;2.80;1.35;;;18.10;59.90;;;;;;5054481;28;20268;-61
2023/01/06 01:33:30;;;;;;;1.60;1.10;;;18.10;60.10;;;;;;5055114;28;20679;-61
2023/01/06 01:35:56;;;;;;;1.70;1.30;;;18.10;59.80;;;;;;5055361;28;20167;-61
2023/01/06 01:38:21;;;;;;;2.78;1.20;;;18.10;59.90;;;;;;5054689;28;20228;-61
2023/01/06 01:40:48;;;;;;;2.92;1.30;;;18.00;59.80;;;;;;5055105;28;20174;-62
2023/01/06 01:43:14;;;;;;;2.22;1.33;;;18.00;59.90;;;;;;5055235;28;20179;-62
2023/01/06 01:45:40;;;;;;;1.40;1.30;;;18.10;59.90;;;;;;5054012;28;20246;-61
2023/01/06 01:48:25;;;;;;;3.40;1.42;;;18.10;60.00;;;;;;5053994;28;20179;-61
2023/01/06 01:50:52;;;;;;;1.58;1.30;;;18.00;59.80;;;;;;5053704;28;20297;-61
2023/01/06 01:53:24;;;;;;;1.70;1.40;;;18.00;59.80;;;;;;5053271;28;20652;-61
2023/01/06 01:55:50;;;;;;;2.10;1.20;;;18.00;59.90;;;;;;5053365;28;20175;-61
2023/01/06 01:58:28;;;;;;;0.90;0.90;;;18.00;59.90;;;;;;5053722;28;20547;-63
2023/01/06 02:00:54;;;;;;;1.40;1.10;;;18.00;59.80;;;;;;5053483;28;20179;-60
2023/01/06 02:03:20;;;;;;;1.35;1.25;;;18.00;60.00;;;;;;5054824;28;20198;-60
2023/01/06 02:05:48;;;;;;;1.13;1.00;;;18.00;59.90;;;;;;5052587;28;20183;-60
2023/01/06 02:08:31;;;;;;;2.42;1.30;;;18.00;59.80;;;;;;5052934;28;20262;-60
2023/01/06 02:10:57;;;;;;;1.63;1.23;;;18.00;59.80;;;;;;5053614;28;20175;-60
2023/01/06 02:13:22;;;;;;;1.42;1.30;;;18.00;59.80;;;;;;5052719;28;20297;-60
2023/01/06 02:15:48;;;;;;;1.20;1.02;;;18.00;59.80;;;;;;5052936;28;20266;-60
2023/01/06 02:18:39;;;;;;;1.35;1.10;;;18.00;59.80;;;;;;5053167;28;20175;-59
2023/01/06 02:21:16;;;;;;;1.40;1.30;;;18.00;59.80;;;;;;5053608;28;20272;-60
2023/01/06 02:23:50;;;;;;;1.33;1.10;;;18.00;59.90;;;;;;5054222;28;20178;-60
2023/01/06 02:26:43;;;;;;;3.08;1.23;;;18.00;59.80;;;;;;5054447;28;20580;-60
2023/01/06 02:29:27;;;;;;;1.73;1.42;;;17.90;59.90;;;;;;5053354;28;20179;-60
2023/01/06 02:31:57;;;;;;;1.42;1.05;;;18.00;59.90;;;;;;5054096;28;20183;-60
2023/01/06 02:34:23;;;;;;;2.13;1.10;;;18.00;59.80;;;;;;5052378;28;20219;-61
2023/01/06 02:36:54;;;;;;;1.15;0.98;;;17.90;60.10;;;;;;5053883;28;20626;-60
2023/01/06 02:39:25;;;;;;;1.95;1.35;;;17.90;59.80;;;;;;5053975;28;20183;-60
2023/01/06 02:42:07;;;;;;;1.33;1.00;;;17.90;59.70;;;;;;5051896;28;21062;-60
2023/01/06 02:44:41;;;;;;;1.42;1.10;;;17.90;59.80;;;;;;5052624;28;20175;-60
2023/01/06 02:47:45;;;;;;;1.42;1.30;;;17.90;59.70;;;;;;5052812;28;20175;-60
2023/01/06 02:50:28;;;;;;;1.58;1.00;;;17.90;59.70;;;;;;5045523;28;20190;-60
2023/01/06 02:53:20;;;;;;;1.20;1.10;;;17.90;59.70;;;;;;5053559;28;20229;-59
2023/01/06 02:55:50;;;;;;;1.80;0.98;;;17.90;59.70;;;;;;5051616;28;20179;-59
2023/01/06 02:58:24;;;;;;;1.50;1.10;;;17.90;59.80;;;;;;5052457;28;20183;-60
2023/01/06 03:01:14;;;;;;;2.03;1.20;;;17.90;59.80;;;;;;5053415;28;20637;-60
2023/01/06 03:03:40;;;;;;;1.58;0.90;;;17.80;59.60;;;;;;5051483;28;20207;-60
2023/01/06 03:06:12;;;;;;;1.30;1.20;;;17.80;59.60;;;;;;5052609;28;20183;-60
2023/01/06 03:08:37;;;;;;;1.40;1.10;;;17.80;59.60;;;;;;5051746;28;20660;-60
2023/01/06 03:11:03;;;;;;;1.90;1.30;;;17.80;59.70;;;;;;5051846;28;20206;-60
2023/01/06 03:13:52;;;;;;;1.38;1.00;;;17.80;59.60;;;;;;5052314;28;20214;-60
2023/01/06 03:16:17;;;;;;;1.10;1.00;;;17.80;59.70;;;;;;5052636;28;20717;-61
2023/01/06 03:18:43;;;;;;;1.52;0.85;;;17.80;59.70;;;;;;5052812;28;20231;-61
2023/01/06 03:21:12;;;;;;;1.30;0.90;;;17.80;59.60;;;;;;5053139;28;20175;-61
2023/01/06 03:23:39;;;;;;;1.67;1.25;;;17.80;59.80;;;;;;5051099;28;20186;-61
2023/01/06 03:26:04;;;;;;;1.10;1.00;;;17.80;59.50;;;;;;5052209;28;20289;-61
2023/01/06 03:28:30;;;;;;;1.20;1.10;;;17.80;59.70;;;;;;5053357;28;20262;-60
2023/01/06 03:31:30;;;;;;;1.23;1.10;;;17.80;59.70;;;;;;5052352;28;20266;-61
2023/01/06 03:34:06;;;;;;;1.38;1.02;;;17.80;59.60;;;;;;5052876;28;20207;-61
2023/01/06 03:36:45;;;;;;;1.40;1.02;;;17.80;59.60;;;;;;5052979;28;20225;-61
2023/01/06 03:39:17;;;;;;;1.65;1.10;;;17.80;59.60;;;;;;5052678;28;20640;-61
2023/01/06 03:44:40;;;;;;;1.02;0.93;;;17.70;59.40;;;;;;5051243;28;20182;-61
2023/01/06 03:47:22;;;;;;;3.80;1.13;;;17.70;59.30;;;;;;5051942;28;20209;-61
2023/01/06 03:49:56;;;;;;;1.10;1.00;;;17.70;59.60;;;;;;5051518;28;20622;-61
2023/01/06 03:52:29;;;;;;;1.27;1.02;;;17.70;59.40;;;;;;5050984;28;20266;-61
2023/01/06 03:55:06;;;;;;;2.00;1.33;;;17.70;59.50;;;;;;5051373;28;20198;-60
2023/01/06 03:57:36;;;;;;;1.00;1.00;;;17.70;59.50;;;;;;5051544;28;20615;-60
2023/01/06 04:00:08;;;;;;;1.58;0.98;;;17.70;59.30;;;;;;5050780;28;20194;-61
2023/01/06 04:02:35;;;;;;;1.15;1.02;;;17.70;59.30;;;;;;5051311;28;20201;-61
2023/01/06 04:05:11;;;;;;;2.03;1.50;;;17.70;59.20;;;;;;5050899;28;20183;-61
2023/01/06 04:07:37;;;;;;;0.75;0.75;;;17.70;59.30;;;;;;5052402;28;20228;-61
2023/01/06 04:10:03;;;;;;;1.65;1.10;;;17.70;59.20;;;;;;5052597;28;20270;-61
2023/01/06 04:12:38;;;;;;;1.63;1.10;;;17.70;59.30;;;;;;5051992;28;20266;-60
2023/01/06 04:15:09;;;;;;;1.17;0.82;;;17.70;59.20;;;;;;5052684;28;20175;-61
2023/01/06 04:17:34;;;;;;;0.95;0.95;;;17.70;59.20;;;;;;5052375;28;20279;-61
2023/01/06 04:20:00;;;;;;;2.92;1.30;;;17.70;59.20;;;;;;5051692;28;20755;-61
2023/01/06 04:22:26;;;;;;;0.82;0.80;;;17.70;59.20;;;;;;5052758;28;20181;-61
2023/01/06 04:24:51;;;;;;;1.17;1.00;;;17.70;59.20;;;;;;5052365;28;20171;-60
2023/01/06 04:27:17;;;;;;;1.70;1.13;;;17.60;59.20;;;;;;5052030;28;20261;-60
2023/01/06 04:29:42;;;;;;;2.45;1.10;;;17.60;59.20;;;;;;5052430;28;20256;-61
2023/01/06 04:32:08;;;;;;;1.73;1.00;;;17.60;59.10;;;;;;5053516;28;20257;-61
2023/01/06 04:34:33;;;;;;;1.98;0.90;;;17.60;59.20;;;;;;5055215;28;20214;-61
2023/01/06 04:36:59;;;;;;;1.45;1.13;;;17.60;59.10;;;;;;5056505;28;20254;-62
2023/01/06 04:39:24;;;;;;;1.63;1.08;;;17.60;59.10;;;;;;5056299;28;20178;-62
2023/01/06 04:41:50;;;;;;;1.70;0.82;;;17.60;59.10;;;;;;5055410;28;20434;-62
2023/01/06 04:44:15;;;;;;;2.25;0.90;;;17.60;59.10;;;;;;5056092;28;20179;-62
2023/01/06 04:46:41;;;;;;;1.70;1.00;;;17.60;59.10;;;;;;5055936;28;20179;-62
2023/01/06 04:49:06;;;;;;;1.00;0.90;;;17.60;59.20;;;;;;5055359;28;20221;-61
2023/01/06 04:51:32;;;;;;;2.65;1.00;;;17.60;59.00;;;;;;5055984;28;20244;-61
2023/01/06 04:53:57;;;;;;;2.05;0.80;;;17.60;59.00;;;;;;5056077;28;20215;-61
2023/01/06 04:56:23;;;;;;;0.77;0.77;;;17.60;59.10;;;;;;5055455;28;20175;-61
2023/01/06 04:58:53;;;;;;;1.65;1.15;;;17.60;59.00;;;;;;5055771;28;20179;-61
2023/01/06 05:01:19;;;;;;;2.38;1.05;;;17.60;59.00;;;;;;5055167;28;20175;-62
2023/01/06 05:03:44;;;;;;;1.80;0.98;;;17.60;59.00;;;;;;5055708;28;20257;-62
2023/01/06 05:06:10;;;;;;;1.77;1.00;;;17.60;59.00;;;;;;5055694;28;20278;-62
2023/01/06 05:08:37;;;;;;;1.48;1.15;;;17.60;59.00;;;;;;5054753;28;20667;-62
2023/01/06 05:11:16;;;;;;;0.80;0.75;;;17.60;58.90;;;;;;5055701;28;20650;-61
2023/01/06 05:13:41;;;;;;;1.13;0.98;;;17.50;59.00;;;;;;5055458;28;20219;-61
2023/01/06 05:16:08;;;;;;;1.67;0.93;;;17.50;58.90;;;;;;5054823;28;20672;-61
2023/01/06 05:18:34;;;;;;;1.00;0.82;;;17.50;58.80;;;;;;5055271;28;20284;-61
2023/01/06 05:20:59;;;;;;;1.05;0.80;;;17.50;58.80;;;;;;5055678;28;20171;-61
2023/01/06 05:23:25;;;;;;;1.65;0.90;;;17.50;58.90;;;;;;5054861;28;20327;-61
2023/01/06 05:25:51;;;;;;;1.58;0.80;;;17.50;58.90;;;;;;5055181;28;20328;-61
2023/01/06 05:28:16;;;;;;;1.20;1.08;;;17.50;58.80;;;;;;5055573;28;20178;-61
2023/01/06 05:30:42;;;;;;;1.52;0.85;;;17.50;58.80;;;;;;5054179;28;20198;-61
2023/01/06 05:33:07;;;;;;;0.68;0.65;;;17.50;58.70;;;;;;5055151;28;20261;-61
2023/01/06 05:35:33;;;;;;;1.35;0.95;;;17.50;58.70;;;;;;5055109;28;20200;-62
2023/01/06 05:37:58;;;;;;;1.10;1.00;;;17.50;58.80;;;;;;5054470;28;20229;-62
2023/01/06 05:40:24;;;;;;;1.27;1.17;;;17.50;58.80;;;;;;5055137;28;20225;-62
2023/01/06 05:42:54;;;;;;;2.60;1.08;;;17.40;58.70;;;;;;5054787;28;20175;-63
2023/01/06 05:45:20;;;;;;;1.52;0.80;;;17.40;58.70;;;;;;5053285;28;20171;-62
2023/01/06 05:47:45;;;;;;;1.70;0.90;;;17.50;58.70;;;;;;5054581;28;20179;-62
2023/01/06 05:50:11;;;;;;;2.00;0.73;;;17.40;58.60;;;;;;5054862;28;20197;-61
2023/01/06 05:52:37;;;;;;;1.98;0.90;;;17.40;58.70;;;;;;5053985;28;20221;-61
2023/01/06 05:55:03;;;;;;;1.30;1.15;;;17.40;58.70;;;;;;5054914;28;20193;-61
2023/01/06 05:57:31;;;;;;;0.68;0.68;;;17.40;58.70;;;;;;5054154;28;20539;-62
2023/01/06 05:59:56;;;;;;;1.15;0.88;;;17.40;58.60;;;;;;5053560;28;20258;-62
2023/01/06 06:02:22;;;;;;;1.20;1.10;;;17.40;58.60;;;;;;5054919;28;20358;-62
2023/01/06 06:04:47;;;;;;;0.80;0.77;;;17.40;58.60;;;;;;5053633;28;20976;-62
2023/01/06 06:07:13;;;;;;;1.67;1.00;;;17.40;58.60;;;;;;5054723;28;20693;-62
2023/01/06 06:09:39;;;;;;;0.80;0.70;;;17.40;58.60;;;;;;5054417;28;20193;-62
2023/01/06 06:12:05;;;;;;;0.98;0.80;;;17.40;58.60;;;;;;5054045;28;20236;-62
2023/01/06 06:14:31;;;;;;;0.80;0.70;;;17.40;58.60;;;;;;5054198;28;20723;-62
2023/01/06 06:16:56;;;;;;;0.77;0.77;;;17.40;58.50;;;;;;5055269;28;20183;-62
2023/01/06 06:19:22;;;;;;;1.10;0.60;;;17.40;58.50;;;;;;5053586;28;20226;-62
2023/01/06 06:21:47;;;;;;;1.10;0.80;;;17.40;58.50;;;;;;5054108;28;20258;-61
2023/01/06 06:24:13;;;;;;;1.15;0.73;;;17.40;58.60;;;;;;5054375;28;20262;-61
2023/01/06 06:26:39;;;;;;;1.08;0.80;;;17.40;58.60;;;;;;5053382;28;20305;-61
2023/01/06 06:29:05;;;;;;;2.75;0.73;;;17.40;58.50;;;;;;5054127;28;20167;-60
2023/01/06 06:31:31;;;;;;;0.95;0.82;;;17.40;58.60;;;;;;5054038;28;20183;-61
2023/01/06 06:33:58;;;;;;;1.20;0.80;;;17.40;58.60;;;;;;5053538;28;20219;-62
2023/01/06 06:36:24;;;;;;;1.15;0.70;;;17.40;58.60;;;;;;5054371;28;20203;-62
2023/01/06 06:38:50;;;;;;;2.20;0.90;;;17.40;58.60;;;;;;5053912;28;20260;-61
2023/01/06 06:41:15;;;;;;;0.93;0.93;;;17.30;58.50;;;;;;5053285;28;20187;-62
2023/01/06 06:43:41;;;;;;;1.27;0.77;;;17.40;58.50;;;;;;5053487;28;20171;-62
2023/01/06 06:46:07;;;;;;;1.23;0.80;;;17.40;58.50;;;;;;5053850;28;20269;-62
2023/01/06 06:48:35;;;;;;;0.88;0.80;;;17.30;58.40;;;;;;5053084;28;20183;-62
2023/01/06 06:51:05;;;;;;;1.05;0.60;;;17.30;58.40;;;;;;5053966;28;20245;-61
2023/01/06 06:53:31;;;;;;;1.33;0.80;;;17.30;58.40;;;;;;5053451;28;20243;-62
2023/01/06 06:55:57;;;;;;;1.17;0.95;;;17.30;58.40;;;;;;5052599;28;20502;-62
2023/01/06 06:58:23;;;;;;;1.42;0.70;;;17.30;58.40;;;;;;5053598;28;20183;-62
2023/01/06 07:00:48;;;;;;;1.08;0.70;;;17.30;58.40;;;;;;5052558;28;20171;-62
2023/01/06 07:03:14;;;;;;;0.90;0.70;;;17.30;58.40;;;;;;5053639;28;20203;-62
2023/01/06 07:05:42;;;;;;;0.85;0.70;;;17.30;58.40;;;;;;5053328;28;20548;-63
2023/01/06 07:08:07;;;;;;;0.80;0.80;;;17.30;58.50;;;;;;5051711;28;20175;-62
2023/01/06 07:10:33;;;;;;;0.70;0.70;;;17.30;58.40;;;;;;5053316;28;20183;-62
2023/01/06 07:12:58;;;;;;;1.50;0.90;;;17.30;58.40;;;;;;5053266;28;20287;-62
2023/01/06 07:15:24;;;;;;;1.77;1.00;;;17.30;58.40;;;;;;5052719;28;20171;-62
2023/01/06 07:17:49;;;;;;;1.15;1.00;;;17.30;58.40;;;;;;5053168;28;20168;-62
2023/01/06 07:20:15;;;;;;;1.65;0.75;;;17.30;58.40;;;;;;5053235;28;20309;-62
2023/01/06 07:22:40;;;;;;;0.95;0.75;;;17.30;58.40;;;;;;5052194;28;20268;-62
2023/01/06 07:25:07;;;;;;;0.75;0.70;;;17.30;58.40;;;;;;5053258;28;20179;-61
2023/01/06 07:27:33;;;;;;;0.85;0.70;;;17.30;58.40;;;;;;5052800;28;20179;-61
2023/01/06 07:29:58;;;;;;;0.88;0.73;;;17.20;58.40;;;;;;5052598;28;20228;-61
2023/01/06 07:32:24;;;;;;;2.00;0.60;;;17.30;58.50;;;;;;5053053;28;20611;-61
2023/01/06 07:34:50;;;;;;;1.38;0.73;;;17.20;58.40;;;;;;5052762;28;20248;-62
2023/01/06 07:37:15;;;;;;;0.50;0.50;;;17.20;58.40;;;;;;5052366;28;20258;-62
2023/01/06 07:39:41;;;;;;;0.73;0.52;;;17.20;58.40;;;;;;5052813;28;20183;-62
2023/01/06 07:42:07;;;;;;;1.40;0.73;;;17.20;58.40;;;;;;5053189;28;20177;-62
2023/01/06 07:44:33;;;;;;;0.95;0.60;;;17.20;58.40;;;;;;5052037;28;20245;-62
2023/01/06 07:46:58;;;;;;;0.75;0.63;;;17.20;58.50;;;;;;5053321;28;20175;-62
2023/01/06 07:49:24;;;;;;;0.75;0.60;;;17.20;58.50;;;;;;5053056;28;20174;-62
2023/01/06 07:51:49;;;;;;;0.65;0.60;;;17.20;58.50;;;;;;5052081;28;20228;-61
2023/01/06 07:54:15;;;;;;;0.88;0.60;;;17.20;58.50;;;;;;5052787;28;20202;-62
2023/01/06 07:56:42;;;;;;;2.13;0.70;;;17.20;58.50;;;;;;5052435;28;20541;-62
2023/01/06 07:59:07;;;;;;;0.77;0.70;;;17.20;58.50;;;;;;5052237;28;20194;-62
2023/01/06 08:01:33;;;;;;;1.00;0.82;;;17.20;58.50;;;;;;5052440;28;20202;-62
2023/01/06 08:03:58;;;;;;;1.38;0.70;;;17.20;58.50;;;;;;5052701;28;20175;-62
2023/01/06 08:06:24;;;;;;;1.85;0.60;;;17.20;58.50;;;;;;5052156;28;20174;-62
2023/01/06 08:08:49;;;;;;;0.90;0.90;;;17.20;58.50;;;;;;5056319;28;20171;-62
2023/01/06 08:11:15;;;;;;;0.50;0.50;;;17.20;58.60;;;;;;5056114;28;20169;-62
2023/01/06 08:13:40;;;;;;;0.70;0.70;;;17.20;58.60;;;;;;5056557;28;20206;-61
2023/01/06 08:16:06;;;;;;;0.60;0.60;;;17.20;58.60;;;;;;5056620;28;20263;-62
2023/01/06 08:18:32;;;;;;;0.70;0.70;;;17.20;59.20;;;;;;5055612;28;20226;-62
2023/01/06 08:21:01;;;;;;;0.90;0.85;;;17.20;58.60;;;;;;5056716;28;20175;-62
2023/01/06 08:23:28;;;;;;;0.73;0.60;;;17.20;58.70;;;;;;5056537;28;20481;-62
2023/01/06 08:26:01;;;;;;;1.08;0.60;;;17.10;58.70;;;;;;5055310;28;20224;-62
2023/01/06 08:28:26;;;;;;;1.20;0.80;;;17.20;58.70;;;;;;5056718;28;20182;-61
2023/01/06 08:30:52;;;;;;;0.63;0.63;;;17.10;58.70;;;;;;5056202;28;20171;-62
2023/01/06 08:33:18;;;;;;;0.70;0.70;;;17.20;58.70;;;;;;5055704;28;20553;-62
2023/01/06 08:35:46;;;;;;;0.80;0.80;;;17.10;58.70;;;;;;5056215;28;20178;-74
2023/01/06 08:38:11;;;;;;;2.33;0.70;;;17.10;58.80;;;;;;5056972;28;20265;-65
2023/01/06 08:40:37;;;;;;;0.57;0.50;;;17.20;58.90;;;;;;5055484;28;20214;-78
2023/01/06 08:43:03;;;;;;;1.27;0.85;;;17.20;59.10;;;;;;5056391;28;20217;-78
2023/01/06 08:45:28;;;;;;;2.53;0.90;;;17.20;58.90;;;;;;5056143;28;20201;-66
2023/01/06 08:47:54;;;;;;;1.27;1.17;;;17.20;59.30;;;;;;5054783;28;20187;-66
2023/01/06 08:50:19;;;;;;;1.02;0.68;;;17.20;59.20;;;;;;5056042;28;20179;-65
2023/01/06 08:52:45;;;;;;;2.35;0.93;;;17.20;59.00;;;;;;5055693;28;20186;-73
2023/01/06 08:55:10;;;;;;;0.90;0.70;;;17.20;59.60;;;;;;5055472;28;20203;-73
2023/01/06 08:57:36;;;;;;;1.98;0.85;;;17.20;59.20;;;;;;5055885;28;20186;-72
2023/01/06 09:00:03;;;;;;;1.02;0.70;;;17.30;59.10;;;;;;5056061;28;20563;-72
2023/01/06 09:02:30;;;;;;;1.27;0.65;;;17.40;59.30;;;;;;5055254;28;20182;-72
2023/01/06 09:04:56;;;;;;;1.48;0.88;;;17.40;59.20;;;;;;5055801;28;20183;-74
2023/01/06 09:07:21;;;;;;;1.35;0.90;;;17.40;59.20;;;;;;5055032;28;20183;-74
2023/01/06 09:09:47;;;;;;;1.65;0.57;;;17.50;59.30;;;;;;5055374;28;20638;-71
2023/01/06 09:12:12;;;;;;;1.10;0.68;;;17.60;59.30;;;;;;5055885;28;20204;-73
2023/01/06 09:14:38;;;;;;;1.80;0.63;;;17.70;59.30;;;;;;5054640;28;20226;-73
2023/01/06 09:17:03;;;;;;;1.63;0.68;;;17.70;59.20;;;;;;5055727;28;20250;-73
2023/01/06 09:19:29;;;;;;;0.50;0.50;;;17.80;59.20;;;;;;5055175;28;20310;-73
2023/01/06 09:21:54;;;;;;;1.35;0.70;;;17.90;59.10;;;;;;5054543;28;20304;-72
2023/01/06 09:24:20;;;;;;;1.05;0.60;;;18.00;59.00;;;;;;5055651;28;20228;-78
2023/01/06 09:26:45;;;;;;;1.00;0.73;;;18.10;58.80;;;;;;5055036;28;20171;-75
2023/01/06 09:29:11;;;;;;;3.60;0.90;;;18.20;58.60;;;;;;5054857;28;20197;-77
2023/01/06 09:31:36;;;;;;;0.60;0.60;;;18.30;58.50;;;;;;5055007;28;20577;-75
2023/01/06 09:34:02;;;;;;;1.05;0.70;;;18.40;58.40;;;;;;5055157;28;20665;-73
2023/01/06 09:36:28;;;;;;;0.50;0.50;;;18.40;58.20;;;;;;5054220;28;20172;-73
2023/01/06 09:38:53;;;;;;;1.85;0.73;;;18.60;58.20;;;;;;5055155;28;20207;-76
2023/01/06 09:41:30;;;;;;;0.65;0.60;;;18.60;58.10;;;;;;5054911;28;20178;-77
2023/01/06 09:43:58;;;;;;;0.63;0.50;;;18.70;58.00;;;;;;5054663;28;20201;-76
2023/01/06 09:46:33;;;;;;;0.82;0.70;;;18.80;57.90;;;;;;5053892;28;20660;-74
2023/01/06 09:49:27;;;;;;;0.40;0.40;;;18.80;57.90;;;;;;5037236;28;20186;-76
2023/01/06 09:51:58;;;;;;;0.93;0.65;;;18.80;57.90;;;;;;5053166;28;20612;-74
2023/01/06 09:54:26;;;;;;;0.77;0.57;;;18.80;57.90;;;;;;5052833;28;20215;-74
2023/01/06 09:57:05;;;;;;;1.23;0.70;;;18.80;58.00;;;;;;5049294;28;20266;-75
2023/01/06 10:00:01;;;;;;;0.88;0.60;;;18.70;58.00;;;;;;5045361;28;20179;-78
2023/01/06 10:02:35;;;;;;;1.25;0.60;;;18.60;58.10;;;;;;5033570;28;20175;-76
2023/01/06 10:05:00;;;;;;;0.60;0.60;;;18.60;58.10;;;;;;5053198;28;20648;-76
2023/01/06 10:07:41;;;;;;;1.05;0.60;;;18.60;58.20;;;;;;5054494;28;20187;-76
2023/01/06 10:10:20;;;;;;;0.77;0.50;;;18.50;58.30;;;;;;5050745;28;20163;-73
2023/01/06 10:13:24;;;;;;;1.75;0.57;;;18.50;58.30;;;;;;5049270;28;20198;-75
2023/01/06 10:16:01;;;;;;;0.90;0.52;;;18.50;58.40;;;;;;5051711;28;20187;-75
2023/01/06 10:18:38;;;;;;;0.55;0.50;;;18.40;58.50;;;;;;5049029;28;20179;-74
2023/01/06 10:21:28;;;;;;;0.50;0.45;;;18.40;58.60;;;;;;5050428;28;20588;-75
2023/01/06 10:23:59;;;;;;;0.98;0.65;;;18.30;58.70;;;;;;5053968;28;20571;-73
2023/01/06 10:26:30;;;;;;;0.40;0.40;;;18.30;58.70;;;;;;5053407;28;20171;-72
2023/01/06 10:29:00;;;;;;;1.13;0.70;;;18.30;58.70;;;;;;5053102;28;20171;-73
2023/01/06 10:31:29;;;;;;;0.55;0.50;;;18.30;58.80;;;;;;5052392;28;20182;-75
2023/01/06 10:33:55;;;;;;;0.60;0.60;;;18.30;58.80;;;;;;5052003;28;20219;-75
2023/01/06 10:36:41;;;;;;;0.60;0.50;;;18.30;58.80;;;;;;5052952;28;20534;-75
2023/01/06 10:39:13;;;;;;;2.13;0.60;;;18.30;58.70;;;;;;5053275;28;20237;-74
2023/01/06 10:41:51;;;;;;;0.52;0.52;;;18.30;58.70;;;;;;5052636;28;20175;-73
2023/01/06 10:44:16;;;;;;;1.23;0.60;;;18.30;58.70;;;;;;5054105;28;20171;-74
2023/01/06 10:46:44;;;;;;;1.08;0.55;;;18.20;58.80;;;;;;5053020;28;20175;-73
2023/01/06 10:49:27;;;;;;;1.13;0.70;;;18.20;58.80;;;;;;5053866;28;20560;-68
2023/01/06 10:51:56;;;;;;;1.85;0.60;;;18.20;59.00;;;;;;5053745;28;20186;-66
2023/01/06 10:54:28;;;;;;;0.70;0.70;;;18.20;59.10;;;;;;5051892;28;20553;-66
2023/01/06 10:57:01;;;;;;;0.90;0.50;;;18.20;59.10;;;;;;5051976;28;20175;-66
2023/01/06 10:59:27;;;;;;;0.70;0.70;;;18.20;59.20;;;;;;5052636;28;20562;-80
2023/01/06 11:01:55;;;;;;;3.22;0.90;;;18.10;59.40;;;;;;5051276;28;20652;-76
2023/01/06 11:04:21;;;;;;;2.33;0.80;;;18.20;59.40;;;;;;5053774;28;20202;-77
2023/01/06 11:06:49;;;;;;;2.90;1.10;;;18.20;59.40;;;;;;5053599;28;20195;-75
2023/01/06 11:09:27;;;;;;;3.33;0.90;;;18.20;59.30;;;;;;5052977;28;20182;-76
2023/01/06 11:11:54;;;;;;;2.55;1.02;;;18.20;59.30;;;;;;5052095;28;20208;-73
2023/01/06 11:14:21;;;;;;;5.05;1.15;;;18.20;59.20;;;;;;5051436;28;20219;-73
2023/01/06 11:16:57;;;;;;;2.50;0.70;;;18.20;59.30;;;;;;5052169;28;20171;-73
2023/01/06 11:19:37;;;;;;;2.22;0.70;;;18.20;59.30;;;;;;5052278;28;20305;-71
2023/01/06 11:22:04;;;;;;;3.35;0.80;;;18.10;59.20;;;;;;5052584;28;20305;-70
2023/01/06 11:24:30;;;;;;;2.05;0.73;;;18.10;59.20;;;;;;5053375;28;20210;-72
2023/01/06 11:27:00;;;;;;;2.75;1.02;;;18.10;59.20;;;;;;5052888;28;20210;-74
2023/01/06 11:29:34;;;;;;;1.08;0.70;;;18.10;59.20;;;;;;5052774;28;20243;-75
2023/01/06 11:32:11;;;;;;;1.33;0.82;;;18.10;59.20;;;;;;5053295;28;20174;-75
2023/01/06 11:34:37;;;;;;;1.80;0.88;;;18.10;59.50;;;;;;5051617;28;20684;-75
2023/01/06 11:37:02;;;;;;;1.15;0.45;;;18.10;59.20;;;;;;5051165;28;20179;-73
2023/01/06 11:39:33;;;;;;;2.75;0.80;;;18.10;59.20;;;;;;5051605;28;20179;-71
2023/01/06 11:42:10;;;;;;;1.63;0.70;;;18.10;59.20;;;;;;5053075;28;20179;-75
2023/01/06 11:44:37;;;;;;;1.52;0.60;;;18.10;59.20;;;;;;5052901;28;20175;-75
2023/01/06 11:47:14;;;;;;;1.95;0.70;;;18.10;59.20;;;;;;5052939;28;20533;-70
2023/01/06 11:49:51;;;;;;;3.05;0.70;;;18.10;59.20;;;;;;5050666;28;20182;-70
2023/01/06 11:52:16;;;;;;;2.90;0.77;;;18.10;59.10;;;;;;5051810;28;20174;-74
2023/01/06 11:54:42;;;;;;;2.22;1.00;;;18.10;59.10;;;;;;5052404;28;20215;-73
2023/01/06 11:57:10;;;;;;;2.25;0.95;;;18.10;59.10;;;;;;5050890;28;20179;-75
2023/01/06 12:00:17;;;;;;;2.58;1.05;;;18.10;59.10;;;;;;5052471;28;20206;-66
2023/01/06 12:02:51;;;;;;;0.52;0.50;;;18.20;59.10;;;;;;5040110;28;20182;-67
2023/01/06 12:05:52;;;;;;;1.88;0.70;;;18.20;59.10;;;;;;5051511;28;20261;-66
2023/01/06 12:08:18;;;;;;;3.72;0.80;;;18.10;59.10;;;;;;5041140;28;20182;-71
2023/01/06 12:10:45;;;;;;;2.28;0.73;;;18.10;59.40;;;;;;5051684;28;20186;-74
2023/01/06 12:13:14;;;;;;;1.60;0.70;;;18.10;59.40;;;;;;5051666;28;20211;-72
2023/01/06 12:15:40;;;;;;;2.10;0.70;;;18.10;59.40;;;;;;5051269;28;20201;-71
2023/01/06 12:18:18;;;;;;;2.97;0.82;;;18.10;59.20;;;;;;5050745;28;20175;-75
2023/01/06 12:20:45;;;;;;;2.22;1.00;;;18.10;59.20;;;;;;5051034;28;20278;-72
2023/01/06 12:23:12;;;;;;;0.85;0.70;;;18.10;59.20;;;;;;5052569;28;20258;-75
2023/01/06 12:25:45;;;;;;;1.50;0.60;;;18.10;59.20;;;;;;5051795;28;20179;-72
2023/01/06 12:28:20;;;;;;;1.48;0.68;;;18.10;59.20;;;;;;5051495;28;20168;-75
2023/01/06 12:30:53;;;;;;;3.55;0.77;;;18.10;59.10;;;;;;5051169;28;20183;-75
2023/01/06 12:33:36;;;;;;;1.60;1.02;;;18.10;59.10;;;;;;5050095;28;20257;-76
2023/01/06 12:36:04;;;;;;;1.30;0.90;;;18.10;59.10;;;;;;5052542;28;20178;-74
2023/01/06 12:38:29;;;;;;;2.75;0.95;;;18.10;59.20;;;;;;5051764;28;20187;-74
2023/01/06 12:41:00;;;;;;;1.83;0.70;;;18.20;59.20;;;;;;5052204;28;20228;-73
2023/01/06 12:43:27;;;;;;;0.90;0.60;;;18.10;59.10;;;;;;5051389;28;20263;-77
2023/01/06 12:46:14;;;;;;;1.85;0.80;;;18.20;59.20;;;;;;5050217;28;20519;-72
2023/01/06 12:48:48;;;;;;;1.73;0.95;;;18.20;59.20;;;;;;5051054;28;20183;-71
2023/01/06 12:51:44;;;;;;;5.18;1.13;;;18.20;59.10;;;;;;5052221;28;20185;-75
2023/01/06 12:54:30;;;;;;;2.13;0.70;;;18.20;59.10;;;;;;5049042;28;20226;-73
2023/01/06 12:57:13;;;;;;;1.52;0.95;;;18.10;59.00;;;;;;5056244;28;20186;-72
2023/01/06 13:00:03;;;;;;;2.47;0.85;;;18.10;59.00;;;;;;5055125;28;20174;-74
2023/01/06 13:02:42;;;;;;;4.18;1.10;;;18.20;58.90;;;;;;5054872;28;20186;-75
2023/01/06 13:05:22;;;;;;;1.25;0.80;;;18.20;58.80;;;;;;5055815;28;20182;-73